sensor_id;sensor_type;location;lat;lon;timestamp;temperature;humidity
65559;DHT22;52203;51.998;5.140;2022-12-10T16:50:02;-3.64;118.99
65559;DHT22;52203;51.998;5.140;2022-12-10T16:53:05;-3.66;118.99
65559;DHT22;52203;51.998;5.140;2022-12-10T16:55:33;-3.64;118.99
65559;DHT22;52203;51.998;5.140;2022-12-10T16:57:59;-3.63;118.99
65559;DHT22;52203;51.998;5.140;2022-12-10T17:00:27;-3.63;118.99
65559;DHT22;52203;51.998;5.140;2022-12-10T17:02:59;-3.60;118.99
65559;DHT22;52203;51.998;5.140;2022-12-10T17:05:35;-3.61;118.99
65559;DHT22;52203;51.998;5.140;2022-12-10T17:08:02;-3.60;118.99
65559;DHT22;52203;51.998;5.140;2022-12-10T17:10:29;-3.58;118.99
65559;DHT22;52203;51.998;5.140;2022-12-10T17:13:55;-3.60;118.99
65559;DHT22;52203;51.998;5.140;2022-12-10T17:16:22;-3.58;118.99
65559;DHT22;52203;51.998;5.140;2022-12-10T17:18:53;-3.58;118.99
65559;DHT22;52203;51.998;5.140;2022-12-10T17:21:19;-3.57;118.99
65559;DHT22;52203;51.998;5.140;2022-12-10T17:23:48;-3.57;118.99
65559;DHT22;52203;51.998;5.140;2022-12-10T17:26:26;-3.58;118.99
65559;DHT22;52203;51.998;5.140;2022-12-10T17:29:15;-3.57;118.99
65559;DHT22;52203;51.998;5.140;2022-12-10T17:31:51;-3.56;118.99
65559;DHT22;52203;51.998;5.140;2022-12-10T17:34:25;-3.56;118.99
65559;DHT22;52203;51.998;5.140;2022-12-10T17:36:55;-3.53;118.99
65559;DHT22;52203;51.998;5.140;2022-12-10T17:39:27;-3.54;118.99
65559;DHT22;52203;51.998;5.140;2022-12-10T17:45:16;-3.51;118.99
65559;DHT22;52203;51.998;5.140;2022-12-10T17:47:43;-3.50;118.99
65559;DHT22;52203;51.998;5.140;2022-12-10T17:53:13;-3.49;118.99
65559;DHT22;52203;51.998;5.140;2022-12-10T17:56:13;-3.49;118.99
65559;DHT22;52203;51.998;5.140;2022-12-10T17:58:50;-3.49;118.99
65559;DHT22;52203;51.998;5.140;2022-12-10T18:01:26;-3.48;118.99
65559;DHT22;52203;51.998;5.140;2022-12-10T18:04:12;-3.46;118.99
65559;DHT22;52203;51.998;5.140;2022-12-10T18:09:59;-3.42;118.99
65559;DHT22;52203;51.998;5.140;2022-12-10T18:12:27;-3.41;118.99
65559;DHT22;52203;51.998;5.140;2022-12-10T18:15:29;-3.40;118.99
65559;DHT22;52203;51.998;5.140;2022-12-10T18:18:07;-3.41;118.99
65559;DHT22;52203;51.998;5.140;2022-12-10T18:24:22;-3.38;118.99
65559;DHT22;52203;51.998;5.140;2022-12-10T18:27:34;-3.40;118.99
65559;DHT22;52203;51.998;5.140;2022-12-10T18:30:38;-3.39;118.99
65559;DHT22;52203;51.998;5.140;2022-12-10T18:33:15;-3.38;118.99
65559;DHT22;52203;51.998;5.140;2022-12-10T18:35:47;-3.38;118.99
65559;DHT22;52203;51.998;5.140;2022-12-10T18:38:16;-3.38;118.99
65559;DHT22;52203;51.998;5.140;2022-12-10T18:41:00;-3.36;118.99
65559;DHT22;52203;51.998;5.140;2022-12-10T18:43:44;-3.38;118.99
65559;DHT22;52203;51.998;5.140;2022-12-10T18:47:26;-3.34;118.99
65559;DHT22;52203;51.998;5.140;2022-12-10T18:50:23;-3.37;118.99
65559;DHT22;52203;51.998;5.140;2022-12-10T18:53:41;-3.34;118.99
65559;DHT22;52203;51.998;5.140;2022-12-10T19:00:30;-3.33;118.99
65559;DHT22;52203;51.998;5.140;2022-12-10T19:10:34;-3.35;118.99
65559;DHT22;52203;51.998;5.140;2022-12-10T19:17:33;-3.33;118.99
65559;DHT22;52203;51.998;5.140;2022-12-10T19:21:07;-3.34;118.99
65559;DHT22;52203;51.998;5.140;2022-12-10T19:24:49;-3.36;118.99
